Terminal Aerodrome Forecast
Issued by NWS Jackson, MS

Home | Current Version | Previous Version | Text Only | Print | Product List | Glossary On
Versions: 1 2 3 4 5 6 7 8 9 10 11 12 13 14 15 16 17 18
000
FTUS44 KMEG 290834 AAA
TAFTUP
TAF AMD
KTUP 290834Z 2909/3006 18004KT 6SM BR OVC010
      TEMPO 2909/2913 3SM BR OVC006
     FM291300 16005KT P6SM OVC006
     FM291600 16005KT P6SM SCT005 BKN250
     FM291700 17007KT P6SM VCTS BKN035CB
     FM300000 18005KT P6SM BKN250=

USA.gov is the U.S. government's official web portal to all federal, state and local government web resources and services.